createdAt,value
2023-03-07T00:04:23.355Z,68.10
2023-03-07T00:09:44.602Z,64.80
2023-03-07T00:14:52.669Z,53.50
2023-03-07T00:24:56.005Z,54.70
2023-03-07T00:29:58.670Z,57.50
2023-03-07T00:35:04.359Z,63.10
2023-03-07T00:40:09.578Z,62.00
2023-03-07T00:45:13.719Z,69.00
2023-03-07T00:50:18.195Z,63.10
2023-03-07T00:55:20.683Z,63.10
2023-03-07T01:00:22.561Z,72.90
2023-03-07T01:05:24.754Z,75.20
2023-03-07T01:10:28.202Z,68.40
2023-03-07T01:15:30.869Z,63.70
2023-03-07T01:20:35.311Z,58.20
2023-03-07T01:25:39.530Z,59.30
2023-03-07T01:30:41.895Z,63.00
2023-03-07T01:35:44.099Z,59.60
2023-03-07T01:40:46.444Z,61.10
2023-03-07T01:45:48.495Z,59.10
2023-03-07T01:50:51.672Z,59.20
2023-03-07T01:55:53.692Z,58.00
2023-03-07T02:00:55.999Z,55.20
2023-03-07T02:06:05.532Z,53.20
2023-03-07T02:11:08.025Z,43.40
2023-03-07T02:16:10.181Z,44.20
2023-03-07T02:21:44.055Z,45.70
2023-03-07T02:26:51.939Z,43.80
2023-03-07T02:31:54.253Z,43.30
2023-03-07T02:37:04.982Z,39.80
2023-03-07T02:42:14.200Z,38.90
2023-03-07T02:47:21.641Z,37.10
2023-03-07T02:52:24.170Z,35.20
2023-03-07T02:57:26.370Z,33.80
2023-03-07T03:02:28.405Z,37.80
2023-03-07T03:07:30.530Z,34.90
2023-03-07T03:12:32.349Z,37.50
2023-03-07T03:17:34.312Z,34.90
2023-03-07T03:27:40.009Z,30.80
2023-03-07T03:32:43.764Z,34.30
2023-03-07T03:37:46.914Z,33.70
2023-03-07T03:42:50.916Z,34.50
2023-03-07T03:47:53.159Z,35.60
2023-03-07T03:52:54.998Z,33.80
2023-03-07T03:57:58.521Z,33.30
2023-03-07T04:03:00.386Z,36.50
2023-03-07T04:08:03.131Z,33.30
2023-03-07T04:13:05.158Z,35.50
2023-03-07T04:18:07.277Z,39.60
2023-03-07T04:23:09.190Z,94.60
2023-03-07T04:28:11.053Z,107.90
2023-03-07T04:33:13.082Z,93.80
2023-03-07T04:38:15.666Z,109.80
2023-03-07T04:43:17.727Z,90.40
2023-03-07T04:48:20.175Z,81.30
2023-03-07T04:53:22.505Z,41.40
2023-03-07T04:58:25.119Z,37.50
2023-03-07T05:06:31.913Z,54.20
2023-03-07T05:11:33.995Z,43.40
2023-03-07T05:16:36.102Z,47.50
2023-03-07T05:21:40.102Z,48.80
2023-03-07T05:26:42.503Z,45.50
2023-03-07T05:31:44.376Z,42.50
2023-03-07T05:36:47.173Z,55.50
2023-03-07T05:41:49.148Z,49.50
2023-03-07T05:46:51.958Z,47.00
2023-03-07T05:51:54.300Z,54.80
2023-03-07T05:56:56.733Z,52.10
2023-03-07T06:01:59.441Z,51.50
2023-03-07T06:07:01.427Z,51.20
2023-03-07T06:12:03.634Z,52.00
2023-03-07T06:17:06.230Z,58.70
2023-03-07T06:22:09.091Z,51.00
2023-03-07T06:27:11.210Z,49.10
2023-03-07T06:32:13.070Z,42.20
2023-03-07T06:37:15.163Z,45.20
2023-03-07T06:42:16.862Z,51.30
2023-03-07T06:47:18.815Z,45.40
2023-03-07T06:52:20.697Z,47.30
2023-03-07T06:57:22.816Z,46.10
2023-03-07T07:02:25.140Z,45.00
2023-03-07T07:07:27.529Z,44.90
2023-03-07T07:12:29.401Z,45.90
2023-03-07T07:17:35.499Z,42.00
2023-03-07T07:22:37.338Z,39.40
2023-03-07T07:27:39.124Z,37.10
2023-03-07T07:32:41.456Z,47.90
2023-03-07T07:38:03.557Z,41.10
2023-03-07T07:43:05.814Z,34.40
2023-03-07T07:48:13.625Z,38.60
2023-03-07T07:53:18.743Z,36.30
2023-03-07T07:58:21.059Z,49.70
2023-03-07T08:03:23.794Z,42.80
2023-03-07T08:08:26.258Z,38.30
2023-03-07T08:13:28.700Z,40.20
2023-03-07T08:18:30.364Z,32.40
2023-03-07T08:23:32.219Z,44.80
2023-03-07T08:28:34.520Z,46.40
2023-03-07T08:33:36.232Z,30.40
2023-03-07T08:38:37.952Z,31.90
2023-03-07T08:43:39.875Z,41.10
2023-03-07T08:48:41.655Z,35.30
2023-03-07T08:53:44.874Z,31.70
2023-03-07T08:58:46.914Z,28.20
2023-03-07T09:03:48.657Z,23.80
2023-03-07T09:08:50.654Z,30.30
2023-03-07T09:13:53.331Z,31.80
2023-03-07T09:18:55.342Z,25.30
2023-03-07T09:23:57.118Z,21.30
2023-03-07T09:28:59.141Z,28.20
2023-03-07T09:34:00.821Z,28.50
2023-03-07T09:39:04.235Z,28.10
2023-03-07T09:44:33.174Z,17.70
2023-03-07T09:49:51.687Z,18.30
2023-03-07T09:55:00.566Z,18.10
2023-03-07T10:00:11.231Z,17.90
2023-03-07T10:05:38.852Z,14.60
2023-03-07T10:10:44.527Z,13.80
2023-03-07T10:15:50.742Z,14.90
2023-03-07T10:20:57.161Z,14.80
2023-03-07T10:26:09.635Z,17.70
2023-03-07T10:31:31.959Z,19.20
2023-03-07T10:36:51.571Z,18.00
2023-03-07T10:41:57.551Z,18.20
2023-03-07T10:47:00.162Z,19.40
2023-03-07T10:52:07.223Z,16.60
2023-03-07T10:57:13.188Z,18.80
2023-03-07T11:02:37.690Z,21.20
2023-03-07T11:07:39.623Z,17.30
2023-03-07T11:12:46.230Z,14.30
2023-03-07T11:17:49.070Z,20.40
2023-03-07T11:23:24.240Z,24.30
2023-03-07T11:28:31.861Z,20.00
2023-03-07T11:33:59.115Z,17.90
2023-03-07T11:39:05.348Z,19.10
2023-03-07T11:44:32.079Z,15.70
2023-03-07T11:49:53.336Z,19.10
2023-03-07T11:54:57.948Z,22.00
2023-03-07T12:00:22.350Z,18.90
2023-03-07T12:05:33.366Z,19.70
2023-03-07T12:10:43.805Z,21.00
2023-03-07T12:16:00.923Z,19.40
2023-03-07T12:21:22.815Z,17.20
2023-03-07T12:26:56.338Z,19.80
2023-03-07T12:32:03.359Z,19.20
2023-03-07T12:37:17.176Z,19.30
2023-03-07T12:42:43.592Z,21.00
2023-03-07T12:48:05.604Z,26.20
2023-03-07T12:53:09.966Z,29.30
2023-03-07T12:58:31.956Z,17.40
2023-03-07T13:04:04.185Z,15.60
2023-03-07T13:09:06.641Z,17.40
2023-03-07T13:14:30.640Z,19.30
2023-03-07T13:19:35.606Z,20.40
2023-03-07T13:24:40.133Z,21.10
2023-03-07T13:30:03.647Z,16.90
2023-03-07T13:35:09.843Z,26.30
2023-03-07T13:40:30.431Z,18.80
2023-03-07T13:45:38.385Z,22.30
2023-03-07T13:50:43.169Z,20.80
2023-03-07T13:55:47.432Z,18.70
2023-03-07T14:00:58.367Z,24.60
2023-03-07T14:06:07.935Z,23.60
2023-03-07T14:11:27.336Z,24.30
2023-03-07T14:16:38.313Z,24.00
2023-03-07T14:21:48.945Z,21.90
2023-03-07T14:26:56.664Z,22.50
2023-03-07T14:32:00.844Z,22.20
2023-03-07T14:37:08.956Z,17.30
2023-03-07T14:42:52.774Z,22.30
2023-03-07T14:48:00.359Z,26.20
2023-03-07T14:53:20.868Z,18.00
2023-03-07T14:58:27.080Z,20.60
2023-03-07T15:03:29.344Z,20.30
2023-03-07T15:08:35.168Z,19.00
2023-03-07T15:13:42.008Z,25.40
2023-03-07T15:18:49.749Z,23.80
2023-03-07T15:23:57.332Z,22.60
2023-03-07T15:29:08.848Z,21.20
2023-03-07T15:34:20.711Z,27.30
2023-03-07T15:39:28.675Z,25.50
2023-03-07T15:44:30.724Z,22.10
2023-03-07T15:49:43.578Z,33.70
2023-03-07T15:54:51.518Z,43.70
2023-03-07T16:00:08.801Z,57.60
2023-03-07T16:05:20.233Z,41.80
2023-03-07T16:10:27.025Z,39.70
2023-03-07T16:15:29.365Z,33.50
2023-03-07T16:20:31.139Z,34.70
2023-03-07T16:25:33.274Z,33.10
2023-03-07T16:30:34.957Z,31.00
2023-03-07T16:35:36.822Z,32.60
2023-03-07T16:40:43.991Z,32.90
2023-03-07T16:45:45.737Z,31.00
2023-03-07T16:50:47.429Z,37.10
2023-03-07T16:55:49.797Z,33.80
2023-03-07T17:00:52.534Z,28.90
2023-03-07T17:05:54.259Z,35.70
2023-03-07T17:10:56.104Z,36.80
2023-03-07T17:15:58.368Z,34.50
2023-03-07T17:21:00.167Z,44.20
2023-03-07T17:26:02.115Z,49.20
2023-03-07T17:31:03.905Z,47.70
2023-03-07T17:36:06.422Z,46.70
2023-03-07T17:41:08.407Z,41.60
2023-03-07T17:46:11.798Z,50.20
2023-03-07T17:51:13.521Z,38.50
2023-03-07T17:56:15.266Z,43.50
2023-03-07T18:01:17.845Z,52.10
2023-03-07T18:06:19.617Z,52.70
2023-03-07T18:11:21.388Z,40.10
2023-03-07T18:16:23.985Z,43.50
2023-03-07T18:21:26.649Z,40.90
2023-03-07T18:26:28.817Z,46.70
2023-03-07T18:31:30.552Z,37.40
2023-03-07T18:36:32.736Z,36.60
2023-03-07T18:41:34.676Z,39.40
2023-03-07T18:46:37.392Z,60.50
2023-03-07T18:51:39.796Z,60.30
2023-03-07T18:56:42.774Z,50.30
2023-03-07T19:01:45.774Z,71.30
2023-03-07T19:06:48.635Z,59.40
2023-03-07T19:11:50.581Z,52.70
2023-03-07T19:16:52.660Z,60.80
2023-03-07T19:21:54.940Z,53.90
2023-03-07T19:26:57.848Z,46.80
2023-03-07T19:31:59.823Z,47.80
2023-03-07T19:37:01.920Z,62.70
2023-03-07T19:42:04.538Z,63.80
2023-03-07T19:47:06.489Z,55.00
2023-03-07T19:52:09.399Z,53.70
2023-03-07T19:57:15.094Z,80.00
2023-03-07T20:02:17.036Z,53.50
2023-03-07T20:07:18.808Z,70.30
2023-03-07T20:12:20.592Z,46.70
2023-03-07T20:17:22.347Z,61.20
2023-03-07T20:22:24.711Z,56.30
2023-03-07T20:27:27.163Z,46.00
2023-03-07T20:32:31.409Z,43.10
2023-03-07T20:37:34.081Z,39.50
2023-03-07T20:42:35.839Z,48.60
2023-03-07T20:47:38.502Z,34.60
2023-03-07T20:52:40.318Z,55.10
2023-03-07T20:57:42.191Z,50.10
2023-03-07T21:02:45.429Z,39.00
2023-03-07T21:07:50.128Z,43.90
2023-03-07T21:12:51.858Z,68.70
2023-03-07T21:17:53.804Z,66.00
2023-03-07T21:22:55.503Z,76.30
2023-03-07T21:27:57.260Z,72.60
2023-03-07T21:32:59.040Z,48.50
2023-03-07T21:38:00.745Z,53.10
